createdAt,value
2023-02-23T00:03:07.624Z,0.60
2023-02-23T00:08:11.130Z,0.60
2023-02-23T00:13:13.657Z,0.50
2023-02-23T00:18:17.319Z,0.50
2023-02-23T00:34:32.030Z,0.40
2023-02-23T00:39:34.430Z,0.40
2023-02-23T00:44:40.617Z,0.40
2023-02-23T00:49:45.116Z,0.40
2023-02-23T00:54:47.979Z,0.40
2023-02-23T00:59:50.379Z,0.30
2023-02-23T01:04:52.740Z,0.40
2023-02-23T01:09:55.172Z,0.30
2023-02-23T01:14:58.195Z,0.40
2023-02-23T01:20:00.596Z,0.40
2023-02-23T01:25:02.991Z,0.40
2023-02-23T01:30:09.751Z,0.30
2023-02-23T01:35:13.755Z,0.30
2023-02-23T01:40:28.713Z,0.30
2023-02-23T01:45:34.740Z,0.30
2023-02-23T01:51:02.966Z,0.30
2023-02-23T01:56:12.324Z,0.20
2023-02-23T02:01:14.941Z,0.20
2023-02-23T02:06:19.833Z,0.20
2023-02-23T02:11:30.776Z,0.20
2023-02-23T02:16:42.562Z,0.10
2023-02-23T02:22:17.383Z,0.10
2023-02-23T02:27:47.091Z,0.10
2023-02-23T02:33:06.960Z,0.00
2023-02-23T02:38:18.209Z,0.00
2023-02-23T02:43:37.454Z,0.00
2023-02-23T02:49:07.498Z,0.00
2023-02-23T02:54:28.386Z,0.00
2023-02-23T02:59:50.569Z,-0.10
2023-02-23T03:05:11.530Z,0.00
2023-02-23T03:11:02.849Z,-0.10
2023-02-23T03:16:33.077Z,-0.10
2023-02-23T03:22:20.033Z,0.00
2023-02-23T03:28:08.788Z,-0.10
2023-02-23T03:33:38.444Z,-0.10
2023-02-23T03:39:12.814Z,0.00
2023-02-23T03:44:44.088Z,-0.10
2023-02-23T03:50:07.956Z,-0.10
2023-02-23T03:55:40.114Z,-0.10
2023-02-23T04:01:07.548Z,0.00
2023-02-23T04:16:43.149Z,-0.10
2023-02-23T04:21:45.560Z,-0.10
2023-02-23T04:26:47.879Z,-0.10
2023-02-23T04:31:50.362Z,-0.10
2023-02-23T04:36:52.885Z,-0.10
2023-02-23T04:41:55.232Z,-0.20
2023-02-23T04:46:58.277Z,0.20
2023-02-23T04:52:00.636Z,-0.10
2023-02-23T04:57:03.283Z,-0.20
2023-02-23T05:02:06.447Z,-0.10
2023-02-23T05:07:08.846Z,-0.20
2023-02-23T05:12:11.127Z,-0.20
2023-02-23T05:17:13.928Z,-0.20
2023-02-23T05:22:16.332Z,-0.30
2023-02-23T05:27:19.190Z,-0.20
2023-02-23T05:32:22.061Z,-0.30
2023-02-23T05:37:24.559Z,-0.30
2023-02-23T05:42:27.041Z,-0.40
2023-02-23T05:47:30.846Z,-0.40
2023-02-23T05:52:33.221Z,-0.30
2023-02-23T05:57:35.953Z,-0.30
2023-02-23T06:02:38.313Z,-0.30
2023-02-23T06:07:40.750Z,-0.30
2023-02-23T06:12:43.120Z,-0.30
2023-02-23T06:17:45.515Z,-0.30
2023-02-23T06:22:48.186Z,-0.20
2023-02-23T06:27:50.612Z,-0.20
2023-02-23T06:32:52.981Z,-0.10
2023-02-23T06:37:57.083Z,0.00
2023-02-23T06:42:59.713Z,0.00
2023-02-23T06:48:02.303Z,0.10
2023-02-23T06:53:05.092Z,0.20
2023-02-23T06:58:08.056Z,0.30
2023-02-23T07:03:11.297Z,0.40
2023-02-23T07:08:13.739Z,0.60
2023-02-23T07:13:16.545Z,0.80
2023-02-23T07:18:18.968Z,0.90
2023-02-23T07:23:22.367Z,1.10
2023-02-23T07:28:25.881Z,1.20
2023-02-23T07:33:28.308Z,1.30
2023-02-23T07:38:30.681Z,1.40
2023-02-23T07:43:33.049Z,1.60
2023-02-23T07:48:35.455Z,1.70
2023-02-23T07:53:37.960Z,1.80
2023-02-23T07:58:42.281Z,1.90
2023-02-23T08:03:49.577Z,2.10
2023-02-23T08:08:52.183Z,2.20
2023-02-23T08:13:56.702Z,2.30
2023-02-23T08:19:00.868Z,2.40
2023-02-23T08:24:04.204Z,2.70
2023-02-23T08:29:06.808Z,2.80
2023-02-23T08:34:09.898Z,3.00
2023-02-23T08:39:12.919Z,3.30
2023-02-23T08:44:15.272Z,3.40
2023-02-23T08:49:17.625Z,3.60
2023-02-23T08:54:20.523Z,4.10
2023-02-23T08:59:22.883Z,3.80
2023-02-23T09:04:25.288Z,4.00
2023-02-23T09:09:27.856Z,4.10
2023-02-23T09:14:30.306Z,4.30
2023-02-23T09:19:33.269Z,4.40
2023-02-23T09:24:35.698Z,4.50
2023-02-23T09:29:41.688Z,4.60
2023-02-23T09:34:44.087Z,4.80
2023-02-23T09:39:48.764Z,5.10
2023-02-23T09:45:17.865Z,5.10
2023-02-23T09:50:25.895Z,5.10
2023-02-23T09:55:28.906Z,5.10
2023-02-23T10:00:37.219Z,5.20
2023-02-23T10:05:46.130Z,5.40
2023-02-23T10:10:54.127Z,5.60
2023-02-23T10:16:20.717Z,5.80
2023-02-23T10:21:38.369Z,6.00
2023-02-23T10:27:07.985Z,6.20
2023-02-23T10:32:32.287Z,6.40
2023-02-23T10:37:34.719Z,6.70
2023-02-23T10:42:37.102Z,6.90
2023-02-23T10:47:41.500Z,7.10
2023-02-23T10:52:49.012Z,7.00
2023-02-23T10:58:00.762Z,7.20
2023-02-23T11:03:16.682Z,7.10
2023-02-23T11:08:29.444Z,7.40
2023-02-23T11:13:46.854Z,7.50
2023-02-23T11:18:56.401Z,7.70
2023-02-23T11:24:03.472Z,7.80
2023-02-23T11:29:33.581Z,7.80
2023-02-23T11:34:41.100Z,8.00
2023-02-23T11:40:01.512Z,7.90
2023-02-23T11:45:05.960Z,8.20
2023-02-23T11:50:28.499Z,8.40
2023-02-23T11:55:32.584Z,8.40
2023-02-23T12:00:34.942Z,8.30
2023-02-23T12:05:38.394Z,8.30
2023-02-23T12:10:49.984Z,8.60
2023-02-23T12:16:25.204Z,8.50
2023-02-23T12:21:53.785Z,8.80
2023-02-23T12:27:18.904Z,8.50
2023-02-23T12:32:51.355Z,8.70
2023-02-23T12:38:12.396Z,9.00
2023-02-23T12:43:40.459Z,9.20
2023-02-23T12:49:02.517Z,9.30
2023-02-23T12:54:05.864Z,9.50
2023-02-23T12:59:16.308Z,9.60
2023-02-23T13:04:30.639Z,9.70
2023-02-23T13:09:54.511Z,9.60
2023-02-23T13:15:12.415Z,9.70
2023-02-23T13:20:18.293Z,9.90
2023-02-23T13:25:34.133Z,10.00
2023-02-23T13:30:38.217Z,10.10
2023-02-23T13:35:42.332Z,9.70
2023-02-23T13:41:13.949Z,9.90
2023-02-23T13:47:04.083Z,9.90
2023-02-23T13:52:23.060Z,9.70
2023-02-23T13:57:27.909Z,9.60
2023-02-23T14:02:40.795Z,9.60
2023-02-23T14:07:45.578Z,9.50
2023-02-23T14:13:27.977Z,9.60
2023-02-23T14:18:33.226Z,9.50
2023-02-23T14:24:03.137Z,9.40
2023-02-23T14:29:22.097Z,9.40
2023-02-23T14:34:44.393Z,9.40
2023-02-23T14:39:50.659Z,9.50
2023-02-23T14:44:55.334Z,9.60
2023-02-23T14:50:01.026Z,9.50
2023-02-23T14:55:29.206Z,9.60
2023-02-23T15:00:41.047Z,9.60
2023-02-23T15:05:47.683Z,9.50
2023-02-23T15:11:03.868Z,9.50
2023-02-23T15:16:14.976Z,9.30
2023-02-23T15:21:25.441Z,9.20
2023-02-23T15:26:36.663Z,9.20
2023-02-23T15:37:05.521Z,9.10
2023-02-23T15:42:13.366Z,9.00
2023-02-23T15:47:22.196Z,9.00
2023-02-23T15:52:25.530Z,8.90
2023-02-23T15:57:32.252Z,8.80
2023-02-23T16:02:36.903Z,8.70
2023-02-23T16:07:43.458Z,8.50
2023-02-23T16:12:49.186Z,8.40
2023-02-23T16:18:13.176Z,8.30
2023-02-23T16:23:33.318Z,8.00
2023-02-23T16:28:40.717Z,7.80
2023-02-23T16:33:48.623Z,7.70
2023-02-23T16:39:02.831Z,7.60
2023-02-23T16:44:07.134Z,7.60
2023-02-23T16:49:12.653Z,7.50
2023-02-23T16:54:14.993Z,7.50
2023-02-23T16:59:18.886Z,7.50
2023-02-23T17:04:21.360Z,7.50
2023-02-23T17:09:24.407Z,7.30
2023-02-23T17:14:31.988Z,7.30
2023-02-23T17:19:34.503Z,7.30
2023-02-23T17:24:36.902Z,7.30
2023-02-23T17:29:39.194Z,7.30
2023-02-23T17:34:41.621Z,7.20
2023-02-23T17:39:44.808Z,7.20
2023-02-23T17:44:47.235Z,7.20
2023-02-23T17:49:49.577Z,7.10
2023-02-23T17:54:53.450Z,7.10
2023-02-23T17:59:56.117Z,7.10
2023-02-23T18:04:58.765Z,7.00
2023-02-23T18:10:01.202Z,7.00
2023-02-23T18:15:03.911Z,7.20
2023-02-23T18:20:07.194Z,7.00
2023-02-23T18:25:20.278Z,6.90
2023-02-23T18:30:24.796Z,6.90
2023-02-23T18:35:27.248Z,6.80
2023-02-23T18:40:30.140Z,6.80
2023-02-23T18:45:33.308Z,6.80
2023-02-23T18:50:36.790Z,6.70
2023-02-23T18:55:39.228Z,6.70
2023-02-23T19:00:43.441Z,6.70
2023-02-23T19:05:52.872Z,6.70
2023-02-23T19:10:56.952Z,6.70
2023-02-23T19:16:03.859Z,6.70
2023-02-23T19:21:06.837Z,6.70
2023-02-23T19:26:09.371Z,6.70
2023-02-23T19:31:15.799Z,6.70
2023-02-23T19:36:21.502Z,6.70
2023-02-23T19:41:24.358Z,6.60
2023-02-23T19:46:27.676Z,6.60
2023-02-23T19:51:30.351Z,6.70
2023-02-23T19:56:33.309Z,6.60
2023-02-23T20:01:36.186Z,6.60
2023-02-23T20:06:44.976Z,6.60
2023-02-23T20:11:48.362Z,6.60
2023-02-23T20:16:50.951Z,6.60
2023-02-23T20:21:53.370Z,6.60
2023-02-23T20:26:56.341Z,6.60
2023-02-23T20:32:00.023Z,6.60
2023-02-23T20:37:04.337Z,6.50
2023-02-23T20:42:07.137Z,6.50
2023-02-23T20:47:09.964Z,6.40
2023-02-23T20:52:12.541Z,6.50
2023-02-23T20:57:14.875Z,6.50
2023-02-23T21:02:17.252Z,6.50
2023-02-23T21:07:25.658Z,6.50
2023-02-23T21:12:28.104Z,6.50
2023-02-23T21:17:30.530Z,6.50
2023-02-23T21:22:33.462Z,6.50
2023-02-23T21:27:36.055Z,6.50
2023-02-23T21:32:41.414Z,6.50
2023-02-23T21:37:43.815Z,6.60
2023-02-23T21:42:47.209Z,6.60
2023-02-23T21:47:49.689Z,6.60
2023-02-23T21:52:56.066Z,6.60
2023-02-23T21:57:58.701Z,6.60
2023-02-23T22:03:01.913Z,6.60
2023-02-23T22:08:04.495Z,6.60
2023-02-23T22:13:06.923Z,6.60
2023-02-23T22:18:09.381Z,6.60
2023-02-23T22:23:11.848Z,6.60
2023-02-23T22:28:14.193Z,6.70
2023-02-23T22:33:19.949Z,6.70
2023-02-23T22:38:22.368Z,6.70
2023-02-23T22:43:27.608Z,6.80
2023-02-23T22:48:29.899Z,6.80
2023-02-23T22:53:32.227Z,6.90
2023-02-23T22:58:36.240Z,7.00
2023-02-23T23:03:47.895Z,7.00
2023-02-23T23:08:52.579Z,7.10
2023-02-23T23:14:03.244Z,7.10
2023-02-23T23:19:09.033Z,7.20
2023-02-23T23:24:13.539Z,7.10
2023-02-23T23:29:15.907Z,7.10
2023-02-23T23:34:21.706Z,7.10
2023-02-23T23:39:26.277Z,7.10
2023-02-23T23:44:29.732Z,7.10
2023-02-23T23:49:40.963Z,7.50
2023-02-23T23:54:43.457Z,7.10
2023-02-23T23:59:46.248Z,7.10
